sensor_id;sensor_type;location;lat;lon;timestamp;pressure;altitude;pressure_sealevel;temperature;humidity
39793;BME280;26080;42.264;24.536;2023-12-04T00:01:29;99680.09;;;4.09;100.00
39793;BME280;26080;42.264;24.536;2023-12-04T00:03:54;99689.44;;;4.20;100.00
39793;BME280;26080;42.264;24.536;2023-12-04T00:06:21;99680.13;;;4.08;100.00
39793;BME280;26080;42.264;24.536;2023-12-04T00:08:46;99689.53;;;4.15;100.00
39793;BME280;26080;42.264;24.536;2023-12-04T00:11:12;99686.97;;;4.12;100.00
39793;BME280;26080;42.264;24.536;2023-12-04T00:13:37;99692.19;;;4.09;100.00
39793;BME280;26080;42.264;24.536;2023-12-04T00:16:03;99699.94;;;4.10;100.00
39793;BME280;26080;42.264;24.536;2023-12-04T00:18:28;99701.69;;;4.08;100.00
39793;BME280;26080;42.264;24.536;2023-12-04T00:20:54;99703.31;;;4.17;100.00
39793;BME280;26080;42.264;24.536;2023-12-04T00:23:19;99706.13;;;4.02;100.00
39793;BME280;26080;42.264;24.536;2023-12-04T00:25:44;99705.25;;;4.03;100.00
39793;BME280;26080;42.264;24.536;2023-12-04T00:28:10;99712.25;;;3.96;100.00
39793;BME280;26080;42.264;24.536;2023-12-04T00:30:35;99713.94;;;3.97;100.00
39793;BME280;26080;42.264;24.536;2023-12-04T00:33:01;99722.63;;;3.98;100.00
39793;BME280;26080;42.264;24.536;2023-12-04T00:35:26;99725.88;;;4.09;100.00
39793;BME280;26080;42.264;24.536;2023-12-04T00:37:51;99731.16;;;4.04;100.00
39793;BME280;26080;42.264;24.536;2023-12-04T00:40:17;99732.94;;;4.01;100.00
39793;BME280;26080;42.264;24.536;2023-12-04T00:42:42;99738.16;;;3.96;100.00
39793;BME280;26080;42.264;24.536;2023-12-04T00:45:08;99747.66;;;3.96;100.00
39793;BME280;26080;42.264;24.536;2023-12-04T00:47:33;99746.78;;;3.97;100.00
39793;BME280;26080;42.264;24.536;2023-12-04T00:49:59;99748.53;;;3.98;100.00
39793;BME280;26080;42.264;24.536;2023-12-04T00:52:24;99757.16;;;3.97;100.00
39793;BME280;26080;42.264;24.536;2023-12-04T00:54:50;99745.16;;;3.91;100.00
39793;BME280;26080;42.264;24.536;2023-12-04T00:57:15;99754.66;;;3.91;100.00
39793;BME280;26080;42.264;24.536;2023-12-04T00:59:40;99766.72;;;3.92;100.00
39793;BME280;26080;42.264;24.536;2023-12-04T01:02:09;99765.91;;;3.88;100.00
39793;BME280;26080;42.264;24.536;2023-12-04T01:04:34;99772.88;;;3.84;100.00
39793;BME280;26080;42.264;24.536;2023-12-04T01:06:59;99774.63;;;3.82;100.00
39793;BME280;26080;42.264;24.536;2023-12-04T01:09:25;99751.50;;;3.67;100.00
39793;BME280;26080;42.264;24.536;2023-12-04T01:11:54;99776.31;;;3.86;100.00
39793;BME280;26080;42.264;24.536;2023-12-04T01:14:20;99777.88;;;3.97;100.00
39793;BME280;26080;42.264;24.536;2023-12-04T01:16:46;99774.53;;;3.90;100.00
39793;BME280;26080;42.264;24.536;2023-12-04T01:19:11;99778.97;;;3.80;100.00
39793;BME280;26080;42.264;24.536;2023-12-04T01:21:37;99779.84;;;3.79;100.00
39793;BME280;26080;42.264;24.536;2023-12-04T01:24:02;99735.28;;;3.51;100.00
39793;BME280;26080;42.264;24.536;2023-12-04T01:26:28;99759.38;;;3.58;100.00
39793;BME280;26080;42.264;24.536;2023-12-04T01:28:53;99780.72;;;3.78;100.00
39793;BME280;26080;42.264;24.536;2023-12-04T01:31:19;99787.66;;;3.76;100.00
39793;BME280;26080;42.264;24.536;2023-12-04T01:33:44;99781.56;;;3.80;100.00
39793;BME280;26080;42.264;24.536;2023-12-04T01:36:10;99785.03;;;3.79;100.00
39793;BME280;26080;42.264;24.536;2023-12-04T01:38:37;99778.16;;;3.75;100.00
39793;BME280;26080;42.264;24.536;2023-12-04T01:41:02;99779.09;;;3.71;100.00
39793;BME280;26080;42.264;24.536;2023-12-04T01:43:28;99791.19;;;3.69;100.00
39793;BME280;26080;42.264;24.536;2023-12-04T01:45:54;99780.81;;;3.69;100.00
39793;BME280;26080;42.264;24.536;2023-12-04T01:48:20;99780.78;;;3.74;100.00
39793;BME280;26080;42.264;24.536;2023-12-04T01:50:45;99780.66;;;3.83;100.00
39793;BME280;26080;42.264;24.536;2023-12-04T01:53:11;99792.06;;;3.68;100.00
39793;BME280;26080;42.264;24.536;2023-12-04T01:55:37;99786.06;;;3.65;100.00
39793;BME280;26080;42.264;24.536;2023-12-04T01:58:03;99787.88;;;3.58;100.00
39793;BME280;26080;42.264;24.536;2023-12-04T02:00:31;99779.38;;;3.47;100.00
39793;BME280;26080;42.264;24.536;2023-12-04T02:02:57;99790.63;;;3.41;100.00
39793;BME280;26080;42.264;24.536;2023-12-04T02:05:23;99791.53;;;3.37;100.00
39793;BME280;26080;42.264;24.536;2023-12-04T02:07:49;99801.91;;;3.37;100.00
39793;BME280;26080;42.264;24.536;2023-12-04T02:10:15;99796.75;;;3.36;100.00
39793;BME280;26080;42.264;24.536;2023-12-04T02:12:40;99813.22;;;3.27;100.00
39793;BME280;26080;42.264;24.536;2023-12-04T02:15:06;99810.59;;;3.28;100.00
39793;BME280;26080;42.264;24.536;2023-12-04T02:17:32;99813.13;;;3.36;100.00
39793;BME280;26080;42.264;24.536;2023-12-04T02:19:58;99809.59;;;3.45;100.00
39793;BME280;26080;42.264;24.536;2023-12-04T02:22:23;99808.88;;;3.31;100.00
39793;BME280;26080;42.264;24.536;2023-12-04T02:24:49;99804.63;;;3.23;100.00
39793;BME280;26080;42.264;24.536;2023-12-04T02:27:20;99818.50;;;3.18;100.00
39793;BME280;26080;42.264;24.536;2023-12-04T02:29:52;99815.00;;;3.20;100.00
39793;BME280;26080;42.264;24.536;2023-12-04T02:32:19;99810.75;;;3.13;100.00
39793;BME280;26080;42.264;24.536;2023-12-04T02:34:47;99815.03;;;3.19;100.00
39793;BME280;26080;42.264;24.536;2023-12-04T02:37:14;99821.88;;;3.23;100.00
39793;BME280;26080;42.264;24.536;2023-12-04T02:39:41;99823.59;;;3.25;100.00
39793;BME280;26080;42.264;24.536;2023-12-04T02:42:07;99824.50;;;3.20;100.00
39793;BME280;26080;42.264;24.536;2023-12-04T02:44:32;99822.84;;;3.16;100.00
39793;BME280;26080;42.264;24.536;2023-12-04T02:46:58;99832.31;;;3.14;100.00
39793;BME280;26080;42.264;24.536;2023-12-04T02:49:23;99830.63;;;3.11;100.00
39793;BME280;26080;42.264;24.536;2023-12-04T02:51:49;99834.94;;;3.09;100.00
39793;BME280;26080;42.264;24.536;2023-12-04T02:54:14;99840.09;;;3.12;100.00
39793;BME280;26080;42.264;24.536;2023-12-04T02:56:40;99832.34;;;3.12;100.00
39793;BME280;26080;42.264;24.536;2023-12-04T02:59:05;99833.13;;;3.20;100.00
39793;BME280;26080;42.264;24.536;2023-12-04T03:01:30;99832.34;;;3.15;100.00
39793;BME280;26080;42.264;24.536;2023-12-04T03:03:56;99839.16;;;3.21;100.00
39793;BME280;26080;42.264;24.536;2023-12-04T03:06:21;99837.38;;;3.27;100.00
39793;BME280;26080;42.264;24.536;2023-12-04T03:08:47;99839.16;;;3.22;100.00
39793;BME280;26080;42.264;24.536;2023-12-04T03:11:13;99846.88;;;3.25;100.00
39793;BME280;26080;42.264;24.536;2023-12-04T03:13:38;99847.78;;;3.23;100.00
39793;BME280;26080;42.264;24.536;2023-12-04T03:16:04;99852.94;;;3.23;100.00
39793;BME280;26080;42.264;24.536;2023-12-04T03:18:30;99859.03;;;3.20;100.00
39793;BME280;26080;42.264;24.536;2023-12-04T03:20:55;99867.59;;;3.25;100.00
39793;BME280;26080;42.264;24.536;2023-12-04T03:23:20;99867.69;;;3.16;100.00
39793;BME280;26080;42.264;24.536;2023-12-04T03:25:46;99873.75;;;3.11;100.00
39793;BME280;26080;42.264;24.536;2023-12-04T03:28:11;99830.94;;;2.75;100.00
39793;BME280;26080;42.264;24.536;2023-12-04T03:30:38;99885.03;;;3.01;100.00
39793;BME280;26080;42.264;24.536;2023-12-04T03:33:03;99888.56;;;2.93;100.00
39793;BME280;26080;42.264;24.536;2023-12-04T03:35:29;99886.84;;;2.91;100.00
39793;BME280;26080;42.264;24.536;2023-12-04T03:37:54;99875.72;;;2.81;100.00
39793;BME280;26080;42.264;24.536;2023-12-04T03:40:20;99883.44;;;2.83;100.00
39793;BME280;26080;42.264;24.536;2023-12-04T03:42:45;99879.19;;;2.77;100.00
39793;BME280;26080;42.264;24.536;2023-12-04T03:45:11;99885.25;;;2.75;100.00
39793;BME280;26080;42.264;24.536;2023-12-04T03:47:36;99893.94;;;2.64;100.00
39793;BME280;26080;42.264;24.536;2023-12-04T03:50:01;99889.63;;;2.59;100.00
39793;BME280;26080;42.264;24.536;2023-12-04T03:52:27;99894.81;;;2.59;100.00
39793;BME280;26080;42.264;24.536;2023-12-04T03:54:52;99891.41;;;2.54;100.00
39793;BME280;26080;42.264;24.536;2023-12-04T03:57:18;99897.44;;;2.51;100.00
39793;BME280;26080;42.264;24.536;2023-12-04T03:59:44;99912.13;;;2.45;100.00
39793;BME280;26080;42.264;24.536;2023-12-04T04:02:10;99912.97;;;2.45;100.00
39793;BME280;26080;42.264;24.536;2023-12-04T04:04:35;99916.47;;;2.38;100.00
39793;BME280;26080;42.264;24.536;2023-12-04T04:07:00;99925.97;;;2.36;100.00
39793;BME280;26080;42.264;24.536;2023-12-04T04:09:26;99925.09;;;2.31;100.00
39793;BME280;26080;42.264;24.536;2023-12-04T04:11:51;99924.25;;;2.33;100.00
39793;BME280;26080;42.264;24.536;2023-12-04T04:14:17;99925.94;;;2.33;100.00
39793;BME280;26080;42.264;24.536;2023-12-04T04:16:42;99927.75;;;2.22;100.00
39793;BME280;26080;42.264;24.536;2023-12-04T04:19:07;99927.72;;;2.23;100.00
39793;BME280;26080;42.264;24.536;2023-12-04T04:21:33;99938.03;;;2.29;100.00
39793;BME280;26080;42.264;24.536;2023-12-04T04:23:59;99935.44;;;2.28;100.00
39793;BME280;26080;42.264;24.536;2023-12-04T04:26:25;99941.53;;;2.22;100.00
39793;BME280;26080;42.264;24.536;2023-12-04T04:28:50;99948.38;;;2.26;100.00
39793;BME280;26080;42.264;24.536;2023-12-04T04:31:15;99947.50;;;2.38;100.00
39793;BME280;26080;42.264;24.536;2023-12-04T04:33:41;99944.03;;;2.33;100.00
39793;BME280;26080;42.264;24.536;2023-12-04T04:36:09;99906.22;;;2.14;100.00
39793;BME280;26080;42.264;24.536;2023-12-04T04:38:34;99950.91;;;2.43;100.00
39793;BME280;26080;42.264;24.536;2023-12-04T04:41:00;99964.69;;;2.48;100.00
39793;BME280;26080;42.264;24.536;2023-12-04T04:43:25;99948.38;;;2.35;100.00
39793;BME280;26080;42.264;24.536;2023-12-04T04:45:51;99942.34;;;2.29;100.00
39793;BME280;26080;42.264;24.536;2023-12-04T04:48:16;99967.25;;;2.45;100.00
39793;BME280;26080;42.264;24.536;2023-12-04T04:50:41;99976.75;;;2.48;100.00
39793;BME280;26080;42.264;24.536;2023-12-04T04:53:07;99973.31;;;2.47;100.00
39793;BME280;26080;42.264;24.536;2023-12-04T04:55:32;99986.19;;;2.55;100.00
39793;BME280;26080;42.264;24.536;2023-12-04T04:57:58;99987.09;;;2.51;100.00
39793;BME280;26080;42.264;24.536;2023-12-04T05:00:23;99985.34;;;2.53;100.00
39793;BME280;26080;42.264;24.536;2023-12-04T05:02:48;99992.25;;;2.52;100.00
39793;BME280;26080;42.264;24.536;2023-12-04T05:05:14;99990.53;;;2.51;100.00
39793;BME280;26080;42.264;24.536;2023-12-04T05:07:45;100001.72;;;2.55;100.00
39793;BME280;26080;42.264;24.536;2023-12-04T05:10:11;99992.25;;;2.49;100.00
39793;BME280;26080;42.264;24.536;2023-12-04T05:12:36;100000.00;;;2.54;100.00
39793;BME280;26080;42.264;24.536;2023-12-04T05:15:01;99981.97;;;2.35;100.00
39793;BME280;26080;42.264;24.536;2023-12-04T05:17:28;100004.34;;;2.41;100.00
39793;BME280;26080;42.264;24.536;2023-12-04T05:19:53;100000.03;;;2.48;100.00
39793;BME280;26080;42.264;24.536;2023-12-04T05:22:18;100012.09;;;2.43;100.00
39793;BME280;26080;42.264;24.536;2023-12-04T05:24:44;100012.97;;;2.40;100.00
39793;BME280;26080;42.264;24.536;2023-12-04T05:27:09;100018.16;;;2.34;100.00
39793;BME280;26080;42.264;24.536;2023-12-04T05:29:35;100014.72;;;2.26;100.00
39793;BME280;26080;42.264;24.536;2023-12-04T05:32:00;100020.78;;;2.22;100.00
39793;BME280;26080;42.264;24.536;2023-12-04T05:34:26;100030.25;;;2.20;100.00
39793;BME280;26080;42.264;24.536;2023-12-04T05:36:51;100040.63;;;2.07;100.00
39793;BME280;26080;42.264;24.536;2023-12-04T05:39:16;100035.44;;;2.07;100.00
39793;BME280;26080;42.264;24.536;2023-12-04T05:41:42;100038.88;;;2.13;100.00
39793;BME280;26080;42.264;24.536;2023-12-04T05:44:07;100028.53;;;2.02;100.00
39793;BME280;26080;42.264;24.536;2023-12-04T05:46:32;100017.38;;;1.83;100.00
39793;BME280;26080;42.264;24.536;2023-12-04T05:48:58;100041.47;;;1.99;100.00
39793;BME280;26080;42.264;24.536;2023-12-04T05:51:23;100054.38;;;1.99;100.00
39793;BME280;26080;42.264;24.536;2023-12-04T05:53:49;100062.13;;;1.91;100.00
39793;BME280;26080;42.264;24.536;2023-12-04T05:56:14;100035.44;;;1.77;100.00
39793;BME280;26080;42.264;24.536;2023-12-04T05:58:40;100068.19;;;1.81;100.00
39793;BME280;26080;42.264;24.536;2023-12-04T06:01:05;100071.59;;;1.77;100.00
39793;BME280;26080;42.264;24.536;2023-12-04T06:03:32;100081.94;;;1.74;100.00
39793;BME280;26080;42.264;24.536;2023-12-04T06:05:57;100077.63;;;1.71;100.00
39793;BME280;26080;42.264;24.536;2023-12-04T06:08:23;100078.50;;;1.69;100.00
39793;BME280;26080;42.264;24.536;2023-12-04T06:10:48;100075.03;;;1.76;100.00
39793;BME280;26080;42.264;24.536;2023-12-04T06:13:14;100087.09;;;1.77;100.00
39793;BME280;26080;42.264;24.536;2023-12-04T06:15:39;100085.38;;;1.77;100.00
39793;BME280;26080;42.264;24.536;2023-12-04T06:18:05;100083.66;;;1.72;100.00
39793;BME280;26080;42.264;24.536;2023-12-04T06:20:30;100089.69;;;1.85;100.00
39793;BME280;26080;42.264;24.536;2023-12-04T06:22:56;100092.28;;;1.89;100.00
39793;BME280;26080;42.264;24.536;2023-12-04T06:25:22;100095.72;;;1.88;100.00
39793;BME280;26080;42.264;24.536;2023-12-04T06:27:48;100097.44;;;1.89;100.00
39793;BME280;26080;42.264;24.536;2023-12-04T06:30:13;100106.94;;;1.95;100.00
39793;BME280;26080;42.264;24.536;2023-12-04T06:32:39;100108.66;;;1.96;100.00
39793;BME280;26080;42.264;24.536;2023-12-04T06:35:05;100123.28;;;1.98;100.00
39793;BME280;26080;42.264;24.536;2023-12-04T06:37:31;100109.53;;;2.07;100.00
39793;BME280;26080;42.264;24.536;2023-12-04T06:40:00;100100.03;;;1.97;100.00
39793;BME280;26080;42.264;24.536;2023-12-04T06:42:27;100125.00;;;2.05;100.00
39793;BME280;26080;42.264;24.536;2023-12-04T06:44:53;100125.88;;;2.11;100.00
39793;BME280;26080;42.264;24.536;2023-12-04T06:47:25;100121.53;;;2.19;100.00
39793;BME280;26080;42.264;24.536;2023-12-04T06:49:51;100117.25;;;2.27;100.00
39793;BME280;26080;42.264;24.536;2023-12-04T06:52:16;100115.50;;;2.43;100.00
39793;BME280;26080;42.264;24.536;2023-12-04T06:54:42;100120.66;;;2.46;100.00
39793;BME280;26080;42.264;24.536;2023-12-04T06:57:07;100122.41;;;2.51;100.00
39793;BME280;26080;42.264;24.536;2023-12-04T06:59:33;100127.53;;;2.68;100.00
39793;BME280;26080;42.264;24.536;2023-12-04T07:01:58;100128.38;;;2.70;100.00
39793;BME280;26080;42.264;24.536;2023-12-04T07:04:24;100122.34;;;2.74;100.00
39793;BME280;26080;42.264;24.536;2023-12-04T07:06:49;100132.69;;;2.77;100.00
39793;BME280;26080;42.264;24.536;2023-12-04T07:09:15;100101.75;;;2.34;100.00
39793;BME280;26080;42.264;24.536;2023-12-04T07:11:42;100123.28;;;2.36;100.00
39793;BME280;26080;42.264;24.536;2023-12-04T07:14:07;100140.53;;;2.36;100.00
39793;BME280;26080;42.264;24.536;2023-12-04T07:16:42;100090.56;;;2.00;100.00
39793;BME280;26080;42.264;24.536;2023-12-04T07:19:09;100136.22;;;2.26;100.00
39793;BME280;26080;42.264;24.536;2023-12-04T07:21:35;100137.06;;;2.16;100.00
39793;BME280;26080;42.264;24.536;2023-12-04T07:24:01;100137.94;;;2.08;100.00
39793;BME280;26080;42.264;24.536;2023-12-04T07:26:26;100127.56;;;1.89;100.00
39793;BME280;26080;42.264;24.536;2023-12-04T07:28:52;100132.75;;;1.89;100.00
39793;BME280;26080;42.264;24.536;2023-12-04T07:31:17;100136.19;;;1.85;100.00
39793;BME280;26080;42.264;24.536;2023-12-04T07:33:43;100132.75;;;1.83;100.00
39793;BME280;26080;42.264;24.536;2023-12-04T07:36:09;100135.31;;;1.72;100.00
39793;BME280;26080;42.264;24.536;2023-12-04T07:38:34;100131.88;;;1.71;100.00
39793;BME280;26080;42.264;24.536;2023-12-04T07:41:00;100144.78;;;1.77;100.00
39793;BME280;26080;42.264;24.536;2023-12-04T07:43:25;100144.81;;;1.85;100.00
39793;BME280;26080;42.264;24.536;2023-12-04T07:45:50;100136.19;;;1.82;100.00
39793;BME280;26080;42.264;24.536;2023-12-04T07:48:16;100149.09;;;1.83;100.00
39793;BME280;26080;42.264;24.536;2023-12-04T07:50:42;100142.25;;;1.93;100.00
39793;BME280;26080;42.264;24.536;2023-12-04T07:53:07;100149.97;;;1.91;100.00
39793;BME280;26080;42.264;24.536;2023-12-04T07:55:39;100085.38;;;1.68;100.00
39793;BME280;26080;42.264;24.536;2023-12-04T07:58:05;100138.78;;;1.97;100.00
39793;BME280;26080;42.264;24.536;2023-12-04T08:00:30;100141.38;;;2.01;100.00
39793;BME280;26080;42.264;24.536;2023-12-04T08:02:55;100140.50;;;2.02;100.00
39793;BME280;26080;42.264;24.536;2023-12-04T08:05:21;100137.94;;;1.98;100.00
39793;BME280;26080;42.264;24.536;2023-12-04T08:07:47;100145.69;;;1.98;100.00
39793;BME280;26080;42.264;24.536;2023-12-04T08:10:12;100147.41;;;1.93;100.00
39793;BME280;26080;42.264;24.536;2023-12-04T08:12:38;100142.22;;;1.91;100.00
39793;BME280;26080;42.264;24.536;2023-12-04T08:15:04;100102.59;;;1.77;100.00
39793;BME280;26080;42.264;24.536;2023-12-04T08:17:31;100150.84;;;2.08;100.00
39793;BME280;26080;42.264;24.536;2023-12-04T08:19:57;100151.72;;;2.20;100.00
39793;BME280;26080;42.264;24.536;2023-12-04T08:22:22;100153.44;;;2.24;100.00
39793;BME280;26080;42.264;24.536;2023-12-04T08:24:47;100141.38;;;2.15;100.00
39793;BME280;26080;42.264;24.536;2023-12-04T08:27:13;100155.16;;;2.23;100.00
39793;BME280;26080;42.264;24.536;2023-12-04T08:29:41;100154.28;;;2.27;100.00
39793;BME280;26080;42.264;24.536;2023-12-04T08:32:07;100155.16;;;2.29;100.00
39793;BME280;26080;42.264;24.536;2023-12-04T08:34:32;100153.44;;;2.31;100.00
39793;BME280;26080;42.264;24.536;2023-12-04T08:36:57;100148.25;;;2.44;100.00
39793;BME280;26080;42.264;24.536;2023-12-04T08:39:23;100139.63;;;2.61;100.00
39793;BME280;26080;42.264;24.536;2023-12-04T08:41:48;100134.44;;;2.67;100.00
39793;BME280;26080;42.264;24.536;2023-12-04T08:44:14;100148.22;;;2.77;100.00
39793;BME280;26080;42.264;24.536;2023-12-04T08:46:39;100155.06;;;2.87;100.00
39793;BME280;26080;42.264;24.536;2023-12-04T08:49:08;100158.50;;;3.05;100.00
39793;BME280;26080;42.264;24.536;2023-12-04T08:51:34;100162.75;;;3.16;100.00
39793;BME280;26080;42.264;24.536;2023-12-04T08:54:01;100159.28;;;3.20;100.00
39793;BME280;26080;42.264;24.536;2023-12-04T08:56:26;100139.41;;;3.24;100.00
39793;BME280;26080;42.264;24.536;2023-12-04T08:58:51;100149.72;;;3.36;100.00
39793;BME280;26080;42.264;24.536;2023-12-04T09:01:17;100107.47;;;3.33;100.00
39793;BME280;26080;42.264;24.536;2023-12-04T09:03:42;100131.50;;;3.53;100.00
39793;BME280;26080;42.264;24.536;2023-12-04T09:06:08;100127.19;;;3.58;100.00
39793;BME280;26080;42.264;24.536;2023-12-04T09:08:34;100134.00;;;3.71;100.00
39793;BME280;26080;42.264;24.536;2023-12-04T09:11:00;100127.88;;;3.81;100.00
39793;BME280;26080;42.264;24.536;2023-12-04T09:13:25;100126.13;;;3.88;100.00
39793;BME280;26080;42.264;24.536;2023-12-04T09:15:51;100070.09;;;3.73;100.00
39793;BME280;26080;42.264;24.536;2023-12-04T09:18:17;100113.03;;;4.03;100.00
39793;BME280;26080;42.264;24.536;2023-12-04T09:20:42;100113.00;;;4.08;100.00
39793;BME280;26080;42.264;24.536;2023-12-04T09:23:08;100114.72;;;4.12;100.00
39793;BME280;26080;42.264;24.536;2023-12-04T09:25:35;100113.75;;;4.22;100.00
39793;BME280;26080;42.264;24.536;2023-12-04T09:28:00;100106.69;;;4.36;100.00
39793;BME280;26080;42.264;24.536;2023-12-04T09:30:26;100114.47;;;4.38;100.00
39793;BME280;26080;42.264;24.536;2023-12-04T09:32:51;100110.91;;;4.48;100.00
39793;BME280;26080;42.264;24.536;2023-12-04T09:35:17;100116.81;;;4.62;100.00
39793;BME280;26080;42.264;24.536;2023-12-04T09:37:42;100117.56;;;4.75;100.00
39793;BME280;26080;42.264;24.536;2023-12-04T09:40:08;100113.25;;;4.74;100.00
39793;BME280;26080;42.264;24.536;2023-12-04T09:42:34;100120.09;;;4.78;100.00
39793;BME280;26080;42.264;24.536;2023-12-04T09:44:59;100118.31;;;4.86;100.00
39793;BME280;26080;42.264;24.536;2023-12-04T09:47:26;100109.44;;;5.02;100.00
39793;BME280;26080;42.264;24.536;2023-12-04T09:49:53;100109.47;;;5.01;100.00
39793;BME280;26080;42.264;24.536;2023-12-04T09:52:20;100097.28;;;5.08;100.00
39793;BME280;26080;42.264;24.536;2023-12-04T09:54:46;100082.88;;;4.84;100.00
39793;BME280;26080;42.264;24.536;2023-12-04T09:57:11;100069.88;;;4.85;100.00
39793;BME280;26080;42.264;24.536;2023-12-04T09:59:38;100101.59;;;5.10;100.00
39793;BME280;26080;42.264;24.536;2023-12-04T10:02:04;100081.78;;;5.01;100.00
39793;BME280;26080;42.264;24.536;2023-12-04T10:04:32;100078.31;;;5.02;100.00
39793;BME280;26080;42.264;24.536;2023-12-04T10:06:57;100101.38;;;5.27;100.00
39793;BME280;26080;42.264;24.536;2023-12-04T10:09:23;100051.63;;;4.90;100.00
39793;BME280;26080;42.264;24.536;2023-12-04T10:11:50;100097.13;;;5.20;100.00
39793;BME280;26080;42.264;24.536;2023-12-04T10:14:19;100096.06;;;5.33;100.00
39793;BME280;26080;42.264;24.536;2023-12-04T10:16:45;100096.84;;;5.41;100.00
39793;BME280;26080;42.264;24.536;2023-12-04T10:21:46;100091.38;;;5.59;100.00
39793;BME280;26080;42.264;24.536;2023-12-04T10:24:15;100087.97;;;5.56;100.00
39793;BME280;26080;42.264;24.536;2023-12-04T10:26:51;100048.41;;;5.39;100.00
39793;BME280;26080;42.264;24.536;2023-12-04T10:29:17;100054.41;;;5.41;100.00
39793;BME280;26080;42.264;24.536;2023-12-04T10:31:43;100068.03;;;5.56;100.00
39793;BME280;26080;42.264;24.536;2023-12-04T10:34:08;100082.53;;;5.73;100.00
39793;BME280;26080;42.264;24.536;2023-12-04T10:36:35;100083.41;;;5.72;100.00
39793;BME280;26080;42.264;24.536;2023-12-04T10:39:02;100085.03;;;5.79;100.00
39793;BME280;26080;42.264;24.536;2023-12-04T10:41:30;100079.72;;;5.85;100.00
39793;BME280;26080;42.264;24.536;2023-12-04T10:43:57;100080.63;;;5.84;100.00
39793;BME280;26080;42.264;24.536;2023-12-04T10:46:24;100079.72;;;5.85;100.00
39793;BME280;26080;42.264;24.536;2023-12-04T10:48:50;100071.25;;;5.72;100.00
39793;BME280;26080;42.264;24.536;2023-12-04T10:51:17;100077.06;;;5.88;100.00
39793;BME280;26080;42.264;24.536;2023-12-04T10:53:43;100067.50;;;5.94;100.00
39793;BME280;26080;42.264;24.536;2023-12-04T10:56:10;100077.00;;;5.96;100.00
39793;BME280;26080;42.264;24.536;2023-12-04T10:58:41;100077.84;;;5.98;100.00
39793;BME280;26080;42.264;24.536;2023-12-04T11:01:07;100079.63;;;5.94;100.00
39793;BME280;26080;42.264;24.536;2023-12-04T11:03:52;100078.56;;;6.07;100.00
39793;BME280;26080;42.264;24.536;2023-12-04T11:06:21;100075.00;;;6.11;100.00
39793;BME280;26080;42.264;24.536;2023-12-04T11:08:48;100074.09;;;6.14;100.00
39793;BME280;26080;42.264;24.536;2023-12-04T11:11:30;100085.00;;;6.36;100.00
39793;BME280;26080;42.264;24.536;2023-12-04T11:14:01;100077.19;;;6.36;100.00
39793;BME280;26080;42.264;24.536;2023-12-04T11:16:49;100079.84;;;6.33;100.00
39793;BME280;26080;42.264;24.536;2023-12-04T11:21:58;100082.34;;;6.37;100.00
39793;BME280;26080;42.264;24.536;2023-12-04T11:24:24;100081.53;;;6.35;100.00
39793;BME280;26080;42.264;24.536;2023-12-04T11:26:50;100083.22;;;6.38;100.00
39793;BME280;26080;42.264;24.536;2023-12-04T11:29:18;100066.13;;;6.23;100.00
39793;BME280;26080;42.264;24.536;2023-12-04T11:31:44;100078.81;;;6.41;100.00
39793;BME280;26080;42.264;24.536;2023-12-04T11:34:12;100043.84;;;6.08;100.00
39793;BME280;26080;42.264;24.536;2023-12-04T11:36:38;100082.25;;;6.42;100.00
39793;BME280;26080;42.264;24.536;2023-12-04T11:39:08;100083.91;;;6.47;100.00
39793;BME280;26080;42.264;24.536;2023-12-04T11:41:35;100081.38;;;6.43;100.00
39793;BME280;26080;42.264;24.536;2023-12-04T11:44:00;100075.94;;;6.55;100.00
39793;BME280;26080;42.264;24.536;2023-12-04T11:46:27;100085.34;;;6.64;100.00
39793;BME280;26080;42.264;24.536;2023-12-04T11:48:54;100059.56;;;6.51;100.00
39793;BME280;26080;42.264;24.536;2023-12-04T11:54:14;100088.13;;;6.53;100.00
39793;BME280;26080;42.264;24.536;2023-12-04T11:56:40;100081.13;;;6.58;100.00
39793;BME280;26080;42.264;24.536;2023-12-04T11:59:07;100083.72;;;6.57;100.00
39793;BME280;26080;42.264;24.536;2023-12-04T12:01:36;100074.00;;;6.66;100.00
39793;BME280;26080;42.264;24.536;2023-12-04T12:04:05;100072.13;;;6.74;100.00
39793;BME280;26080;42.264;24.536;2023-12-04T12:06:30;100078.84;;;6.84;100.00
39793;BME280;26080;42.264;24.536;2023-12-04T12:08:56;100039.50;;;6.58;100.00
39793;BME280;26080;42.264;24.536;2023-12-04T12:11:23;100079.00;;;6.78;100.00
39793;BME280;26080;42.264;24.536;2023-12-04T12:13:49;100081.66;;;6.75;100.00
39793;BME280;26080;42.264;24.536;2023-12-04T12:16:14;100079.97;;;6.73;100.00
39793;BME280;26080;42.264;24.536;2023-12-04T12:18:40;100077.38;;;6.71;100.00
39793;BME280;26080;42.264;24.536;2023-12-04T12:21:07;100082.47;;;6.77;100.00
39793;BME280;26080;42.264;24.536;2023-12-04T12:23:33;100083.28;;;6.81;100.00
39793;BME280;26080;42.264;24.536;2023-12-04T12:25:59;100080.41;;;6.95;100.00
39793;BME280;26080;42.264;24.536;2023-12-04T12:28:25;100078.44;;;7.06;100.00
39793;BME280;26080;42.264;24.536;2023-12-04T12:30:50;100075.56;;;7.18;100.00
39793;BME280;26080;42.264;24.536;2023-12-04T12:33:19;100074.88;;;7.10;100.00
39793;BME280;26080;42.264;24.536;2023-12-04T12:35:46;100061.84;;;7.10;100.00
39793;BME280;26080;42.264;24.536;2023-12-04T12:38:13;100027.00;;;6.75;100.00
39793;BME280;26080;42.264;24.536;2023-12-04T12:40:38;100070.03;;;6.92;100.00
39793;BME280;26080;42.264;24.536;2023-12-04T12:43:08;100070.91;;;6.92;100.00
39793;BME280;26080;42.264;24.536;2023-12-04T12:45:41;100068.88;;;7.06;100.00